createdAt,value
2022-10-11T00:01:03.039Z,3.13
2022-10-11T00:03:30.954Z,3.07
2022-10-11T00:05:58.757Z,2.60
2022-10-11T00:08:26.624Z,2.60
2022-10-11T00:10:58.889Z,2.70
2022-10-11T00:13:28.856Z,2.43
2022-10-11T00:15:56.904Z,2.90
2022-10-11T00:18:25.105Z,2.50
2022-10-11T00:21:02.521Z,3.13
2022-10-11T00:23:30.418Z,3.03
2022-10-11T00:25:59.410Z,2.90
2022-10-11T00:28:28.860Z,2.63
2022-10-11T00:30:56.737Z,2.73
2022-10-11T00:33:24.701Z,2.57
2022-10-11T00:35:52.566Z,2.57
2022-10-11T00:38:20.416Z,2.57
2022-10-11T00:40:48.193Z,2.30
2022-10-11T00:43:18.650Z,2.70
2022-10-11T00:46:31.563Z,2.43
2022-10-11T00:49:04.638Z,3.10
2022-10-11T00:51:40.461Z,2.73
2022-10-11T00:54:12.173Z,2.37
2022-10-11T00:56:41.586Z,2.50
2022-10-11T00:59:14.515Z,2.73
2022-10-11T01:01:43.923Z,3.10
2022-10-11T01:04:11.815Z,3.00
2022-10-11T01:06:41.107Z,2.80
2022-10-11T01:09:09.375Z,2.23
2022-10-11T01:11:40.261Z,2.47
2022-10-11T01:14:24.142Z,2.43
2022-10-11T01:17:00.038Z,2.43
2022-10-11T01:20:00.660Z,2.40
2022-10-11T01:22:47.818Z,2.60
2022-10-11T01:25:27.508Z,2.27
2022-10-11T01:28:12.691Z,2.50
2022-10-11T01:30:43.999Z,2.17
2022-10-11T01:33:27.272Z,2.50
2022-10-11T01:36:04.968Z,2.50
2022-10-11T01:38:38.875Z,2.53
2022-10-11T01:41:10.704Z,2.60
2022-10-11T01:43:39.767Z,2.63
2022-10-11T01:46:10.261Z,2.73
2022-10-11T01:48:48.815Z,2.60
2022-10-11T01:51:17.178Z,2.60
2022-10-11T01:54:00.467Z,2.47
2022-10-11T01:56:42.044Z,2.70
2022-10-11T01:59:21.210Z,2.37
2022-10-11T02:01:58.456Z,2.70
2022-10-11T02:04:34.063Z,2.33
2022-10-11T02:07:08.634Z,2.50
2022-10-11T02:09:42.563Z,2.40
2022-10-11T02:12:13.280Z,2.30
2022-10-11T02:14:44.568Z,2.40
2022-10-11T02:17:17.549Z,2.73
2022-10-11T02:19:50.482Z,2.70
2022-10-11T02:22:22.914Z,2.80
2022-10-11T02:24:55.063Z,2.50
2022-10-11T02:27:26.700Z,2.57
2022-10-11T02:29:56.577Z,2.33
2022-10-11T02:32:26.942Z,2.73
2022-10-11T02:34:56.751Z,2.87
2022-10-11T02:37:31.411Z,2.23
2022-10-11T02:40:05.841Z,2.57
2022-10-11T02:42:39.670Z,2.20
2022-10-11T02:45:13.087Z,2.50
2022-10-11T02:47:43.499Z,2.30
2022-10-11T02:50:13.046Z,2.27
2022-10-11T02:52:41.064Z,2.50
2022-10-11T02:55:10.006Z,2.50
2022-10-11T02:57:37.936Z,2.63
2022-10-11T03:00:08.200Z,2.30
2022-10-11T03:02:36.517Z,2.60
2022-10-11T03:05:06.091Z,2.23
2022-10-11T03:07:33.970Z,2.47
2022-10-11T03:10:01.778Z,2.77
2022-10-11T03:12:29.639Z,2.40
2022-10-11T03:14:57.393Z,2.50
2022-10-11T03:17:36.209Z,2.60
2022-10-11T03:20:08.154Z,2.27
2022-10-11T03:22:36.356Z,2.40
2022-10-11T03:25:04.997Z,2.53
2022-10-11T03:27:33.482Z,2.53
2022-10-11T03:30:02.039Z,2.63
2022-10-11T03:32:30.923Z,2.40
2022-10-11T03:34:58.780Z,2.60
2022-10-11T03:37:28.330Z,2.50
2022-10-11T03:39:56.179Z,2.20
2022-10-11T03:42:24.040Z,2.37
2022-10-11T03:44:51.964Z,2.60
2022-10-11T03:47:20.019Z,2.57
2022-10-11T03:49:47.862Z,2.60
2022-10-11T03:52:15.644Z,2.30
2022-10-11T03:54:44.828Z,2.40
2022-10-11T03:57:12.625Z,2.23
2022-10-11T03:59:40.440Z,2.37
2022-10-11T04:02:08.328Z,2.40
2022-10-11T04:04:36.273Z,2.53
2022-10-11T04:07:04.207Z,2.43
2022-10-11T04:09:32.154Z,2.70
2022-10-11T04:12:01.319Z,2.73
2022-10-11T04:14:29.285Z,2.47
2022-10-11T04:17:00.232Z,2.50
2022-10-11T04:19:28.966Z,3.00
2022-10-11T04:21:57.211Z,3.10
2022-10-11T04:24:25.018Z,2.70
2022-10-11T04:26:52.808Z,3.10
2022-10-11T04:29:21.984Z,2.90
2022-10-11T04:31:49.755Z,2.80
2022-10-11T04:34:18.224Z,2.63
2022-10-11T04:36:49.721Z,2.60
2022-10-11T04:39:18.273Z,2.77
2022-10-11T04:41:46.215Z,2.67
2022-10-11T04:44:14.028Z,3.30
2022-10-11T04:46:43.149Z,2.60
2022-10-11T04:49:11.009Z,2.80
2022-10-11T04:51:38.895Z,2.67
2022-10-11T04:54:06.792Z,2.30
2022-10-11T04:56:34.561Z,2.40
2022-10-11T04:59:02.387Z,2.30
2022-10-11T05:01:30.254Z,2.40
2022-10-11T05:03:59.652Z,2.30
2022-10-11T05:06:27.705Z,2.33
2022-10-11T05:08:55.653Z,2.10
2022-10-11T05:11:23.629Z,2.83
2022-10-11T05:13:51.598Z,2.43
2022-10-11T05:16:19.473Z,2.60
2022-10-11T05:18:47.261Z,2.67
2022-10-11T05:21:20.304Z,2.53
2022-10-11T05:23:49.754Z,2.60
2022-10-11T05:26:17.682Z,2.30
2022-10-11T05:28:45.782Z,3.00
2022-10-11T05:31:13.978Z,2.80
2022-10-11T05:33:42.197Z,2.60
2022-10-11T05:36:10.393Z,2.20
2022-10-11T05:38:39.732Z,3.00
2022-10-11T05:41:08.977Z,2.47
2022-10-11T05:43:37.175Z,2.30
2022-10-11T05:46:05.373Z,2.60
2022-10-11T05:48:34.286Z,2.73
2022-10-11T05:51:03.554Z,2.67
2022-10-11T05:53:31.714Z,2.57
2022-10-11T05:56:01.097Z,3.00
2022-10-11T05:58:29.453Z,2.77
2022-10-11T06:00:57.600Z,2.77
2022-10-11T06:03:25.538Z,3.10
2022-10-11T06:05:56.985Z,3.13
2022-10-11T06:08:25.351Z,3.00
2022-10-11T06:10:53.135Z,3.10
2022-10-11T06:13:22.428Z,3.40
2022-10-11T06:15:50.195Z,3.20
2022-10-11T06:18:17.992Z,3.47
2022-10-11T06:20:45.784Z,3.43
2022-10-11T06:23:13.674Z,3.40
2022-10-11T06:25:41.440Z,4.10
2022-10-11T06:28:09.345Z,3.93
2022-10-11T06:30:39.590Z,3.30
2022-10-11T06:33:07.526Z,3.47
2022-10-11T06:35:35.342Z,3.73
2022-10-11T06:38:03.138Z,3.70
2022-10-11T06:40:30.912Z,3.77
2022-10-11T06:42:58.866Z,3.80
2022-10-11T06:45:26.643Z,4.00
2022-10-11T06:47:55.855Z,3.83
2022-10-11T06:50:47.181Z,3.50
2022-10-11T06:53:12.135Z,3.60
2022-10-11T06:55:39.940Z,3.60
2022-10-11T06:58:07.779Z,4.40
2022-10-11T07:00:35.579Z,3.80
2022-10-11T07:03:04.927Z,3.73
2022-10-11T07:05:34.636Z,4.40
2022-10-11T07:08:02.867Z,4.60
2022-10-11T07:10:30.686Z,3.90
2022-10-11T07:12:58.546Z,3.63
2022-10-11T07:15:26.357Z,4.20
2022-10-11T07:17:54.189Z,3.60
2022-10-11T07:20:23.361Z,4.40
2022-10-11T07:22:51.242Z,3.90
2022-10-11T07:25:19.122Z,3.80
2022-10-11T07:27:46.974Z,3.70
2022-10-11T07:30:14.930Z,3.60
2022-10-11T07:32:42.777Z,3.70
2022-10-11T07:35:10.617Z,3.20
2022-10-11T07:37:39.807Z,3.63
2022-10-11T07:40:11.109Z,3.53
2022-10-11T07:42:38.934Z,3.70
2022-10-11T07:45:07.387Z,4.03
2022-10-11T07:47:35.250Z,3.23
2022-10-11T07:50:03.005Z,3.90
2022-10-11T07:52:30.866Z,3.37
2022-10-11T07:55:00.085Z,3.10
2022-10-11T07:57:27.910Z,3.13
2022-10-11T07:59:55.730Z,3.17
2022-10-11T08:02:23.593Z,3.70
2022-10-11T08:04:51.370Z,2.90
2022-10-11T08:07:19.192Z,3.40
2022-10-11T08:09:46.993Z,2.97
2022-10-11T08:12:16.158Z,3.10
2022-10-11T08:14:44.041Z,3.00
2022-10-11T08:17:11.833Z,2.93
2022-10-11T08:19:39.680Z,2.90
2022-10-11T08:22:07.959Z,3.20
2022-10-11T08:24:38.334Z,3.07
2022-10-11T08:27:06.462Z,2.70
2022-10-11T08:29:35.690Z,3.20
2022-10-11T08:32:03.534Z,3.00
2022-10-11T08:34:31.308Z,3.00
2022-10-11T08:36:59.250Z,2.73
2022-10-11T08:39:27.050Z,2.57
2022-10-11T08:42:00.438Z,2.50
2022-10-11T08:45:05.612Z,2.50
2022-10-11T08:47:29.449Z,2.53
2022-10-11T08:49:58.948Z,2.70
2022-10-11T08:52:32.018Z,2.40
2022-10-11T08:55:05.765Z,2.80
2022-10-11T08:57:37.024Z,2.77
2022-10-11T09:00:09.735Z,2.30
2022-10-11T09:03:07.084Z,2.87
2022-10-11T09:05:36.361Z,2.40
2022-10-11T09:08:11.568Z,2.23
2022-10-11T09:10:58.136Z,2.60
2022-10-11T09:13:42.297Z,2.43
2022-10-11T09:16:21.683Z,1.97
2022-10-11T09:19:13.537Z,2.13
2022-10-11T09:21:49.068Z,2.30
2022-10-11T09:24:37.742Z,1.80
2022-10-11T09:27:19.199Z,1.93
2022-10-11T09:30:01.712Z,1.77
2022-10-11T09:32:35.065Z,2.30
2022-10-11T09:35:12.142Z,2.03
2022-10-11T09:37:51.671Z,1.73
2022-10-11T09:40:30.343Z,2.17
2022-10-11T09:42:59.333Z,1.80
2022-10-11T09:45:27.257Z,1.97
2022-10-11T09:47:58.065Z,1.90
2022-10-11T09:50:30.519Z,1.60
2022-10-11T09:53:00.690Z,2.10
2022-10-11T09:55:34.646Z,2.20
2022-10-11T09:58:03.137Z,2.13
2022-10-11T10:00:33.470Z,2.03
2022-10-11T10:03:04.840Z,1.73
2022-10-11T10:05:35.191Z,1.80
2022-10-11T10:08:08.250Z,1.77
2022-10-11T10:10:41.690Z,1.93
2022-10-11T10:13:21.633Z,2.37
2022-10-11T10:15:51.930Z,1.50
2022-10-11T10:18:24.681Z,2.00
2022-10-11T10:20:54.718Z,1.67
2022-10-11T10:23:26.999Z,1.53
2022-10-11T10:26:12.215Z,2.37
2022-10-11T10:28:54.545Z,1.70
2022-10-11T10:31:24.422Z,1.77
2022-10-11T10:33:55.239Z,1.57
2022-10-11T10:36:28.120Z,1.80
2022-10-11T10:39:02.582Z,1.43
2022-10-11T10:41:30.438Z,1.87
2022-10-11T10:44:00.307Z,1.87
2022-10-11T10:46:46.141Z,2.00
2022-10-11T10:49:48.888Z,1.73
2022-10-11T10:52:44.277Z,2.00
2022-10-11T10:55:24.303Z,1.67
2022-10-11T10:58:05.338Z,1.73
2022-10-11T11:00:42.276Z,1.90
2022-10-11T11:03:21.185Z,1.80
2022-10-11T11:05:58.495Z,1.90
2022-10-11T11:08:36.074Z,1.70
2022-10-11T11:11:14.250Z,1.60
2022-10-11T11:13:51.253Z,1.83
2022-10-11T11:16:25.630Z,1.63
2022-10-11T11:18:58.785Z,1.70
2022-10-11T11:21:42.260Z,1.87
2022-10-11T11:24:18.785Z,2.00
2022-10-11T11:26:53.125Z,2.10
2022-10-11T11:29:33.742Z,1.50
2022-10-11T11:32:10.813Z,1.97
2022-10-11T11:34:43.369Z,1.70
2022-10-11T11:37:23.075Z,1.60
2022-10-11T11:39:53.985Z,1.70
2022-10-11T11:42:27.486Z,1.80
2022-10-11T11:44:55.447Z,1.70
2022-10-11T11:47:31.181Z,1.57
2022-10-11T11:50:01.000Z,1.77
2022-10-11T11:52:34.715Z,1.40
2022-10-11T11:55:10.584Z,1.77
2022-10-11T11:57:54.684Z,1.50
2022-10-11T12:00:24.669Z,1.40
2022-10-11T12:02:56.237Z,1.20
2022-10-11T12:05:27.807Z,2.00
2022-10-11T12:08:01.172Z,1.40
2022-10-11T12:10:36.354Z,1.77
2022-10-11T12:13:21.234Z,1.20
2022-10-11T12:15:59.594Z,1.30
2022-10-11T12:18:28.981Z,1.70
2022-10-11T12:21:08.660Z,1.80
2022-10-11T12:23:44.675Z,1.50
2022-10-11T12:26:34.526Z,1.57
2022-10-11T12:29:27.369Z,1.57
2022-10-11T12:32:29.957Z,1.67
2022-10-11T12:35:37.696Z,1.60
2022-10-11T12:38:15.302Z,1.77
2022-10-11T12:40:47.039Z,1.60
2022-10-11T12:43:37.211Z,1.30
2022-10-11T12:46:43.439Z,1.30
2022-10-11T12:49:25.271Z,2.10
2022-10-11T12:52:00.036Z,1.90
2022-10-11T12:54:49.262Z,1.30
2022-10-11T12:57:50.061Z,1.60
2022-10-11T13:00:21.642Z,1.70
2022-10-11T13:02:50.507Z,1.70
2022-10-11T13:05:24.135Z,1.67
2022-10-11T13:07:53.541Z,1.60
2022-10-11T13:10:27.012Z,1.73
2022-10-11T13:12:59.554Z,1.70
2022-10-11T13:15:27.762Z,1.70
2022-10-11T13:18:00.666Z,1.50
2022-10-11T13:20:32.105Z,1.67
2022-10-11T13:23:00.209Z,1.60
2022-10-11T13:25:30.188Z,1.60
2022-10-11T13:28:00.218Z,1.43
2022-10-11T13:30:30.396Z,1.50
2022-10-11T13:32:59.682Z,1.57
2022-10-11T13:35:32.693Z,2.30
2022-10-11T13:38:01.278Z,1.87
2022-10-11T13:40:30.446Z,1.83
2022-10-11T13:43:00.509Z,1.70
2022-10-11T13:45:30.501Z,2.47
2022-10-11T13:47:58.771Z,2.30
2022-10-11T13:50:32.199Z,2.00
2022-10-11T13:53:02.304Z,2.13
2022-10-11T13:55:33.460Z,1.50
2022-10-11T13:58:09.585Z,1.60
2022-10-11T14:00:39.999Z,2.07
2022-10-11T14:03:18.564Z,1.80
2022-10-11T14:05:55.370Z,1.70
2022-10-11T14:08:29.468Z,2.00
2022-10-11T14:11:01.309Z,2.00
2022-10-11T14:13:37.477Z,1.80
2022-10-11T14:16:08.993Z,1.73
2022-10-11T14:18:46.823Z,1.70
2022-10-11T14:21:29.830Z,1.70
2022-10-11T14:23:59.925Z,1.70
2022-10-11T14:26:32.068Z,1.63
2022-10-11T14:29:03.003Z,1.50
2022-10-11T14:31:31.358Z,1.53
2022-10-11T14:33:59.448Z,1.60
2022-10-11T14:36:27.663Z,1.67
2022-10-11T14:38:55.440Z,1.97
2022-10-11T14:41:23.289Z,1.70
2022-10-11T14:43:51.096Z,1.70
2022-10-11T14:46:24.046Z,3.03
2022-10-11T14:48:56.675Z,4.50
2022-10-11T14:51:30.010Z,2.07
2022-10-11T14:53:58.853Z,1.90
2022-10-11T14:56:26.793Z,1.80
2022-10-11T14:58:54.739Z,1.97
2022-10-11T15:01:24.051Z,1.80
2022-10-11T15:03:52.001Z,1.70
2022-10-11T15:06:22.335Z,1.77
2022-10-11T15:08:50.154Z,1.40
2022-10-11T15:11:21.076Z,1.47
2022-10-11T15:13:49.408Z,1.30
2022-10-11T15:16:19.157Z,1.60
2022-10-11T15:18:50.964Z,1.97
2022-10-11T15:21:20.744Z,1.77
2022-10-11T15:23:50.089Z,2.00
2022-10-11T15:26:19.848Z,1.80
2022-10-11T15:28:48.786Z,1.73
2022-10-11T15:31:16.822Z,1.93
2022-10-11T15:33:44.738Z,1.87
2022-10-11T15:36:17.503Z,1.70
2022-10-11T15:38:46.114Z,1.70
2022-10-11T15:41:15.494Z,2.27
2022-10-11T15:43:45.032Z,2.10
2022-10-11T15:46:15.800Z,3.60
2022-10-11T15:48:44.378Z,3.87
2022-10-11T15:51:13.538Z,4.00
2022-10-11T15:53:42.021Z,3.27
2022-10-11T15:56:15.077Z,2.87
2022-10-11T15:58:43.943Z,4.20
2022-10-11T16:01:14.814Z,4.47
2022-10-11T16:03:42.934Z,3.60
2022-10-11T16:06:11.700Z,3.27
2022-10-11T16:08:41.307Z,3.13
2022-10-11T16:11:10.527Z,2.93
2022-10-11T16:13:38.961Z,3.53
2022-10-11T16:16:09.626Z,3.17
2022-10-11T16:18:37.914Z,2.60
2022-10-11T16:21:08.654Z,2.40
2022-10-11T16:23:37.437Z,2.37
2022-10-11T16:26:09.595Z,2.03
2022-10-11T16:28:38.664Z,2.20
2022-10-11T16:31:10.399Z,2.80
2022-10-11T16:33:45.392Z,3.90
2022-10-11T16:36:35.406Z,3.50
2022-10-11T16:39:06.705Z,3.07
2022-10-11T16:41:35.922Z,2.80
2022-10-11T16:44:04.373Z,2.63
2022-10-11T16:46:32.936Z,2.90
2022-10-11T16:49:01.878Z,2.97
2022-10-11T16:51:29.898Z,2.67
2022-10-11T16:53:57.954Z,2.70
2022-10-11T16:56:25.794Z,2.50
2022-10-11T16:58:55.613Z,2.03
2022-10-11T17:01:23.886Z,2.17
2022-10-11T17:03:52.073Z,2.03
2022-10-11T17:06:20.697Z,1.97
2022-10-11T17:08:48.702Z,1.87
2022-10-11T17:11:17.514Z,2.27
2022-10-11T17:13:45.419Z,2.30
2022-10-11T17:16:14.679Z,2.47
2022-10-11T17:18:42.461Z,2.43
2022-10-11T17:21:13.048Z,1.77
2022-10-11T17:23:41.075Z,2.70
2022-10-11T17:26:12.265Z,2.93
2022-10-11T17:28:40.702Z,2.27
2022-10-11T17:31:09.324Z,2.30
2022-10-11T17:33:39.497Z,2.10
2022-10-11T17:36:16.449Z,2.30
2022-10-11T17:38:44.310Z,2.20
2022-10-11T17:41:12.595Z,2.43
2022-10-11T17:43:40.840Z,2.57
2022-10-11T17:46:09.731Z,2.73
2022-10-11T17:48:39.297Z,2.70
2022-10-11T17:51:09.321Z,2.43
2022-10-11T17:53:38.255Z,2.70
2022-10-11T17:56:07.627Z,3.13
2022-10-11T17:58:35.558Z,4.20
2022-10-11T18:01:05.642Z,4.33
2022-10-11T18:03:34.221Z,3.73
2022-10-11T18:06:05.619Z,3.30
2022-10-11T18:08:39.794Z,3.23
2022-10-11T18:11:11.577Z,2.93
2022-10-11T18:13:42.460Z,3.10
2022-10-11T18:16:11.485Z,2.63
2022-10-11T18:18:40.021Z,2.63
2022-10-11T18:21:09.539Z,2.63
2022-10-11T18:23:38.251Z,2.67
2022-10-11T18:26:11.049Z,2.83
2022-10-11T18:28:39.064Z,2.67
2022-10-11T18:31:12.520Z,2.70
2022-10-11T18:33:42.122Z,2.43
2022-10-11T18:36:13.479Z,2.90
2022-10-11T18:38:46.205Z,2.73
2022-10-11T18:41:16.932Z,2.53
2022-10-11T18:43:49.989Z,2.43
2022-10-11T18:46:18.585Z,2.43
2022-10-11T18:48:48.680Z,2.10
2022-10-11T18:51:20.290Z,2.10
2022-10-11T18:53:48.950Z,1.97
2022-10-11T18:56:20.561Z,2.10
2022-10-11T18:58:48.966Z,2.57
2022-10-11T19:01:19.253Z,2.57
2022-10-11T19:03:49.363Z,2.70
2022-10-11T19:06:19.922Z,2.93
2022-10-11T19:08:49.721Z,3.33
2022-10-11T19:11:21.466Z,3.87
2022-10-11T19:13:55.649Z,4.80
2022-10-11T19:16:24.391Z,4.60
2022-10-11T19:18:53.698Z,4.73
2022-10-11T19:21:22.990Z,5.23
2022-10-11T19:23:51.288Z,6.00
2022-10-11T19:26:22.217Z,6.77
2022-10-11T19:28:55.858Z,6.00
2022-10-11T19:31:23.770Z,4.70
2022-10-11T19:33:51.829Z,4.37
2022-10-11T19:36:19.978Z,3.80
2022-10-11T19:38:51.028Z,4.40
2022-10-11T19:41:20.950Z,4.10
2022-10-11T19:43:48.819Z,4.60
2022-10-11T19:46:44.342Z,4.10
2022-10-11T19:49:10.143Z,4.53
2022-10-11T19:51:38.175Z,4.23
2022-10-11T19:54:09.005Z,4.30
2022-10-11T19:56:37.054Z,4.20
2022-10-11T19:59:06.421Z,4.80
2022-10-11T20:01:35.877Z,4.60
2022-10-11T20:04:06.234Z,4.80
2022-10-11T20:06:38.598Z,4.80
2022-10-11T20:11:56.818Z,4.60
2022-10-11T20:14:24.924Z,4.27
2022-10-11T20:16:52.902Z,4.70
2022-10-11T20:19:24.877Z,5.00
2022-10-11T20:21:55.824Z,4.73
2022-10-11T20:24:27.172Z,5.20
2022-10-11T20:26:55.013Z,4.93
2022-10-11T20:29:25.150Z,4.30
2022-10-11T20:31:53.201Z,4.73
2022-10-11T20:34:21.129Z,4.93
2022-10-11T20:36:49.554Z,4.60
2022-10-11T20:39:17.867Z,4.50
2022-10-11T20:41:47.074Z,4.50
2022-10-11T20:44:15.995Z,4.00
2022-10-11T20:46:43.874Z,4.47
2022-10-11T20:49:13.168Z,4.33
2022-10-11T20:51:42.496Z,5.00
2022-10-11T20:54:11.013Z,4.33
2022-10-11T20:56:39.540Z,4.87
2022-10-11T20:59:08.865Z,5.23
2022-10-11T21:01:39.158Z,4.77
2022-10-11T21:04:08.345Z,5.33
2022-10-11T21:06:36.183Z,5.40
2022-10-11T21:09:04.337Z,5.00
2022-10-11T21:11:34.964Z,4.90
2022-10-11T21:14:04.883Z,4.77
2022-10-11T21:16:35.225Z,5.70
2022-10-11T21:19:03.869Z,5.53
2022-10-11T21:21:32.074Z,5.10
2022-10-11T21:24:01.469Z,5.33
2022-10-11T21:26:30.531Z,5.30
2022-10-11T21:28:59.121Z,5.20
2022-10-11T21:31:32.705Z,5.90
2022-10-11T21:34:04.882Z,5.70
2022-10-11T21:36:32.745Z,5.87
2022-10-11T21:39:00.630Z,5.60
2022-10-11T21:41:30.087Z,5.27
2022-10-11T21:43:58.304Z,5.43
2022-10-11T21:46:47.513Z,5.43
2022-10-11T21:49:18.096Z,5.33
2022-10-11T21:51:46.171Z,4.50
2022-10-11T21:54:13.933Z,4.73
2022-10-11T21:56:41.907Z,5.13
2022-10-11T21:59:12.269Z,4.47
2022-10-11T22:01:41.598Z,4.60
2022-10-11T22:04:09.917Z,4.63
2022-10-11T22:06:39.708Z,4.43
2022-10-11T22:09:08.391Z,4.70
2022-10-11T22:11:36.686Z,5.00
2022-10-11T22:14:04.910Z,4.33
2022-10-11T22:16:33.735Z,4.67
2022-10-11T22:19:01.660Z,4.40
2022-10-11T22:21:29.532Z,4.67
2022-10-11T22:23:58.686Z,5.57
2022-10-11T22:26:30.957Z,5.80
2022-10-11T22:28:59.370Z,5.50
2022-10-11T22:31:27.190Z,5.40
2022-10-11T22:33:55.817Z,5.30
2022-10-11T22:36:25.154Z,5.33
2022-10-11T22:38:54.267Z,5.50
2022-10-11T22:41:23.503Z,5.10
2022-10-11T22:43:51.885Z,6.73
2022-10-11T22:46:19.753Z,7.80
2022-10-11T22:48:47.565Z,8.70
2022-10-11T22:51:15.508Z,8.90
2022-10-11T22:53:43.354Z,8.33
2022-10-11T22:56:11.540Z,8.80
2022-10-11T22:58:40.802Z,8.23
2022-10-11T23:01:09.767Z,8.57
2022-10-11T23:03:38.044Z,6.97
2022-10-11T23:06:06.947Z,4.77
2022-10-11T23:08:34.844Z,5.70
2022-10-11T23:11:07.477Z,5.97
2022-10-11T23:13:35.840Z,5.40
2022-10-11T23:16:08.324Z,5.87
2022-10-11T23:18:36.478Z,5.43
2022-10-11T23:21:05.539Z,5.60
2022-10-11T23:23:33.979Z,5.33
2022-10-11T23:26:03.169Z,5.13
2022-10-11T23:28:31.161Z,5.20
2022-10-11T23:30:59.119Z,5.00
2022-10-11T23:33:28.883Z,5.47
2022-10-11T23:35:56.689Z,4.20
2022-10-11T23:38:24.487Z,4.93
2022-10-11T23:40:52.329Z,3.97
2022-10-11T23:43:20.094Z,3.40
2022-10-11T23:45:47.964Z,3.23
2022-10-11T23:48:15.732Z,3.00
2022-10-11T23:50:45.000Z,2.70
2022-10-11T23:53:14.192Z,3.00
2022-10-11T23:55:42.885Z,3.10
2022-10-11T23:58:10.741Z,3.20
